Maquela do Zombo Airport


Codes: FNMQ/
Name: Maquela do Zombo Airport
City: Maquela do Zombo
Country: Angola
Elevation: 3051 ft.

Photos at Maquela do Zombo Airport


   Photos courtesy of SpottingLog. You can add your own sightings and photos by signing up for a free trial today.



No photos found.

Weather at Maquela do Zombo Airport


Time (UTC)DescriptionTempratureWindCloud coverageVisibilityPressureHumidity
16-Jun-2024 12:00Broken Clouds28°C4 mph, SE76%10000m1013hPa22%
16-Jun-2024 15:00Overcast Clouds29°C2 mph, NE90%10000m1011hPa22%
16-Jun-2024 18:00Overcast Clouds22°C2 mph, NW99%10000m1012hPa38%
16-Jun-2024 21:00Overcast Clouds20°C2 mph, SW100%10000m1014hPa44%
17-Jun-2024 00:00Overcast Clouds19°C4 mph, SW100%10000m1014hPa53%
17-Jun-2024 03:00Overcast Clouds17°C2 mph, SW100%10000m1014hPa60%
17-Jun-2024 06:00Overcast Clouds17°C2 mph, SW97%10000m1016hPa70%
17-Jun-2024 09:00Overcast Clouds26°C4 mph, SW100%10000m1015hPa46%
17-Jun-2024 12:00Overcast Clouds30°C4 mph, NW100%10000m1012hPa32%
17-Jun-2024 15:00Overcast Clouds28°C7 mph, NW100%10000m1010hPa37%
17-Jun-2024 18:00Overcast Clouds21°C4 mph, NW100%10000m1013hPa62%
17-Jun-2024 21:00Overcast Clouds20°C4 mph, W100%10000m1014hPa70%
18-Jun-2024 00:00Overcast Clouds17°C4 mph, SW100%10000m1014hPa84%
18-Jun-2024 03:00Overcast Clouds16°C4 mph, SW99%10000m1014hPa98%
18-Jun-2024 06:00Overcast Clouds16°C4 mph, S100%10000m1015hPa89%
18-Jun-2024 09:00Scattered Clouds27°C2 mph, S32%10000m1015hPa42%
18-Jun-2024 12:00Few Clouds33°C0 mph, N17%10000m1011hPa26%
18-Jun-2024 15:00Clear Sky31°C4 mph, NW0%10000m1009hPa27%
18-Jun-2024 18:00Clear Sky22°C4 mph, NW1%10000m1012hPa55%
18-Jun-2024 21:00Clear Sky21°C4 mph, SW2%10000m1014hPa63%
19-Jun-2024 00:00Clear Sky19°C4 mph, SW2%10000m1014hPa71%
19-Jun-2024 03:00Clear Sky17°C4 mph, SW2%10000m1013hPa81%
19-Jun-2024 06:00Few Clouds17°C4 mph, SW13%10000m1014hPa82%
19-Jun-2024 09:00Broken Clouds27°C4 mph, W58%10000m1014hPa45%
19-Jun-2024 12:00Scattered Clouds32°C4 mph, NW49%10000m1011hPa31%
19-Jun-2024 15:00Few Clouds30°C7 mph, NW14%10000m1009hPa32%
19-Jun-2024 18:00Scattered Clouds23°C4 mph, NW25%10000m1012hPa57%
19-Jun-2024 21:00Scattered Clouds20°C4 mph, SW26%10000m1014hPa65%
20-Jun-2024 00:00Few Clouds19°C4 mph, SW23%10000m1013hPa72%
20-Jun-2024 03:00Broken Clouds17°C4 mph, SW66%10000m1013hPa79%
20-Jun-2024 06:00Scattered Clouds18°C2 mph, SW38%10000m1014hPa74%
20-Jun-2024 09:00Few Clouds29°C4 mph, SW23%10000m1013hPa37%
20-Jun-2024 12:00Few Clouds34°C0 mph, NE15%10000m1010hPa24%
20-Jun-2024 15:00Clear Sky32°C2 mph, N7%10000m1008hPa23%
20-Jun-2024 18:00Few Clouds24°C4 mph, NW20%10000m1011hPa50%
20-Jun-2024 21:00Clear Sky21°C4 mph, NW10%10000m1013hPa58%
21-Jun-2024 00:00Clear Sky19°C4 mph, SW9%10000m1013hPa71%
21-Jun-2024 03:00Clear Sky17°C4 mph, SW7%10000m1013hPa81%
21-Jun-2024 06:00Few Clouds18°C4 mph, SW22%10000m1015hPa78%
21-Jun-2024 09:00Scattered Clouds28°C4 mph, W41%10000m1014hPa39%